Track даниил сергеевич

Time Latitude Longitude Accuracy (66% radius in meters) Altitude (meters) Speed (km/hour) Bearing (degrees) Battery (%) GPS flag
12:35:36 60.403650 30.324930 0 0 0 0 1 delete
12:35:35 60.403650 30.324930 0 0 0 0 1 delete
12:35:34 60.403650 30.324900 0 0 0 0 1 delete
12:35:33 60.403660 30.324880 0 0 0 0 1 delete
12:35:32 60.403660 30.324870 0 0 0 0 1 delete
12:35:31 60.403660 30.324860 0 0 0 0 1 delete
12:35:30 60.403660 30.324860 0 0 0 0 1 delete
12:35:29 60.403660 30.324840 0 0 0 0 1 delete
12:35:28 60.403660 30.324840 0 0 0 0 1 delete
12:35:27 60.403660 30.324840 0 0 0 0 1 delete
12:35:26 60.403690 30.324820 0 0 0 0 1 delete
12:35:25 60.403690 30.324830 0 0 0 0 1 delete
12:35:24 60.403690 30.324850 0 0 0 0 1 delete
12:35:23 60.403690 30.324860 0 0 0 0 1 delete
12:35:22 60.403690 30.324880 0 0 0 0 1 delete
12:35:21 60.403690 30.324900 0 0 0 0 1 delete
12:35:20 60.403690 30.324920 0 0 0 0 1 delete
12:35:19 60.403680 30.324940 0 0 0 0 1 delete
12:35:18 60.403660 30.324960 0 0 0 0 1 delete
12:35:17 60.403620 30.325000 0 0 0 0 1 delete
12:35:16 60.403560 30.324950 0 0 0 0 1 delete
12:35:15 60.403580 30.324960 0 0 0 0 1 delete
12:35:14 60.403600 30.325000 0 0 0 0 1 delete
12:35:13 60.403620 30.325040 0 0 0 0 1 delete
12:32:54 60.403580 30.324910 0 0 0 0 1 delete
12:32:53 60.403580 30.324910 0 0 0 0 1 delete
12:32:52 60.403580 30.324910 0 0 0 0 1 delete
12:32:51 60.403580 30.324910 0 0 0 0 1 delete
12:32:50 60.403580 30.324910 0 0 0 0 1 delete
12:32:49 60.403580 30.324910 0 0 0 0 1 delete
12:32:48 60.403580 30.324910 0 0 0 0 1 delete
12:32:47 60.403580 30.324910 0 0 0 0 1 delete
12:32:46 60.403580 30.324910 0 0 0 0 1 delete
12:32:45 60.403580 30.324910 0 0 0 0 1 delete
12:32:44 60.403580 30.324910 0 0 0 0 1 delete
12:32:43 60.403580 30.324910 0 0 0 0 1 delete
12:32:42 60.403580 30.324910 0 0 0 0 1 delete
12:32:41 60.403580 30.324910 0 0 0 0 1 delete
12:32:40 60.403580 30.324910 0 0 0 0 1 delete
12:32:39 60.403580 30.324910 0 0 0 0 1 delete
12:32:38 60.403580 30.324910 0 0 0 0 1 delete
12:32:37 60.403580 30.324910 0 0 0 0 1 delete
12:32:36 60.403580 30.324910 0 0 0 0 1 delete
12:32:35 60.403580 30.324910 0 0 0 0 1 delete
12:32:34 60.403580 30.324910 0 0 0 0 1 delete
12:32:33 60.403580 30.324910 0 0 0 0 1 delete
12:32:32 60.403580 30.324910 0 0 0 0 1 delete
12:32:31 60.403580 30.324910 0 0 0 0 1 delete
12:32:30 60.403580 30.324910 0 0 0 0 1 delete
12:32:29 60.403580 30.324910 0 0 0 0 1 delete